sensor_id;sensor_type;location;lat;lon;timestamp;P1;durP1;ratioP1;P2;durP2;ratioP2
27313;SDS011;14800;48.174;9.798;2023-08-24T00:02:01;7.20;;;5.50;;
27313;SDS011;14800;48.174;9.798;2023-08-24T00:04:27;9.02;;;5.72;;
27313;SDS011;14800;48.174;9.798;2023-08-24T00:06:53;6.50;;;5.88;;
27313;SDS011;14800;48.174;9.798;2023-08-24T00:09:19;8.80;;;5.70;;
27313;SDS011;14800;48.174;9.798;2023-08-24T00:11:45;8.32;;;5.63;;
27313;SDS011;14800;48.174;9.798;2023-08-24T00:14:10;5.72;;;5.20;;
27313;SDS011;14800;48.174;9.798;2023-08-24T00:16:36;7.05;;;5.45;;
27313;SDS011;14800;48.174;9.798;2023-08-24T00:19:02;6.65;;;5.40;;
27313;SDS011;14800;48.174;9.798;2023-08-24T00:21:28;6.80;;;5.18;;
27313;SDS011;14800;48.174;9.798;2023-08-24T00:23:53;6.32;;;5.35;;
27313;SDS011;14800;48.174;9.798;2023-08-24T00:26:19;6.45;;;5.78;;
27313;SDS011;14800;48.174;9.798;2023-08-24T00:28:48;6.78;;;6.18;;
27313;SDS011;14800;48.174;9.798;2023-08-24T00:31:17;6.53;;;5.68;;
27313;SDS011;14800;48.174;9.798;2023-08-24T00:33:43;9.20;;;6.25;;
27313;SDS011;14800;48.174;9.798;2023-08-24T00:36:08;7.10;;;6.20;;
27313;SDS011;14800;48.174;9.798;2023-08-24T00:38:34;7.43;;;6.45;;
27313;SDS011;14800;48.174;9.798;2023-08-24T00:41:00;7.30;;;6.60;;
27313;SDS011;14800;48.174;9.798;2023-08-24T00:43:26;7.03;;;6.22;;
27313;SDS011;14800;48.174;9.798;2023-08-24T00:45:52;9.73;;;7.13;;
27313;SDS011;14800;48.174;9.798;2023-08-24T00:48:20;7.82;;;6.75;;
27313;SDS011;14800;48.174;9.798;2023-08-24T00:50:51;6.93;;;6.15;;
27313;SDS011;14800;48.174;9.798;2023-08-24T00:53:20;7.22;;;6.38;;
27313;SDS011;14800;48.174;9.798;2023-08-24T00:55:46;8.75;;;6.47;;
27313;SDS011;14800;48.174;9.798;2023-08-24T00:58:13;7.65;;;6.03;;
27313;SDS011;14800;48.174;9.798;2023-08-24T01:00:39;8.05;;;5.60;;
27313;SDS011;14800;48.174;9.798;2023-08-24T01:03:04;7.88;;;6.10;;
27313;SDS011;14800;48.174;9.798;2023-08-24T01:05:30;7.13;;;6.15;;
27313;SDS011;14800;48.174;9.798;2023-08-24T01:07:56;6.05;;;5.35;;
27313;SDS011;14800;48.174;9.798;2023-08-24T01:10:21;6.50;;;5.93;;
27313;SDS011;14800;48.174;9.798;2023-08-24T01:15:27;8.48;;;6.28;;
27313;SDS011;14800;48.174;9.798;2023-08-24T01:17:55;7.50;;;6.38;;
27313;SDS011;14800;48.174;9.798;2023-08-24T01:20:25;9.35;;;6.63;;
27313;SDS011;14800;48.174;9.798;2023-08-24T01:25:35;8.55;;;6.57;;
27313;SDS011;14800;48.174;9.798;2023-08-24T01:28:05;7.03;;;6.30;;
27313;SDS011;14800;48.174;9.798;2023-08-24T01:30:32;7.07;;;6.38;;
27313;SDS011;14800;48.174;9.798;2023-08-24T01:33:01;6.47;;;5.97;;
27313;SDS011;14800;48.174;9.798;2023-08-24T01:35:29;8.07;;;6.18;;
27313;SDS011;14800;48.174;9.798;2023-08-24T01:37:55;7.53;;;6.82;;
27313;SDS011;14800;48.174;9.798;2023-08-24T01:40:23;8.40;;;6.47;;
27313;SDS011;14800;48.174;9.798;2023-08-24T01:43:01;7.47;;;6.63;;
27313;SDS011;14800;48.174;9.798;2023-08-24T01:45:31;8.65;;;6.28;;
27313;SDS011;14800;48.174;9.798;2023-08-24T01:47:57;7.78;;;6.93;;
27313;SDS011;14800;48.174;9.798;2023-08-24T01:50:27;7.57;;;6.90;;
27313;SDS011;14800;48.174;9.798;2023-08-24T01:52:53;7.70;;;7.00;;
27313;SDS011;14800;48.174;9.798;2023-08-24T01:55:19;9.88;;;7.70;;
27313;SDS011;14800;48.174;9.798;2023-08-24T01:57:45;8.57;;;7.35;;
27313;SDS011;14800;48.174;9.798;2023-08-24T02:00:10;8.35;;;7.22;;
27313;SDS011;14800;48.174;9.798;2023-08-24T02:02:36;7.75;;;6.97;;
27313;SDS011;14800;48.174;9.798;2023-08-24T02:05:02;8.15;;;6.97;;
27313;SDS011;14800;48.174;9.798;2023-08-24T02:07:28;7.57;;;6.43;;
27313;SDS011;14800;48.174;9.798;2023-08-24T02:09:54;7.18;;;6.45;;
27313;SDS011;14800;48.174;9.798;2023-08-24T02:12:19;7.68;;;6.15;;
27313;SDS011;14800;48.174;9.798;2023-08-24T02:14:45;6.97;;;6.28;;
27313;SDS011;14800;48.174;9.798;2023-08-24T02:17:11;8.20;;;6.10;;
27313;SDS011;14800;48.174;9.798;2023-08-24T02:19:36;8.55;;;6.15;;
27313;SDS011;14800;48.174;9.798;2023-08-24T02:22:02;6.95;;;5.88;;
27313;SDS011;14800;48.174;9.798;2023-08-24T02:24:27;6.22;;;5.75;;
27313;SDS011;14800;48.174;9.798;2023-08-24T02:26:53;6.38;;;5.72;;
27313;SDS011;14800;48.174;9.798;2023-08-24T02:29:19;6.95;;;5.68;;
27313;SDS011;14800;48.174;9.798;2023-08-24T02:31:44;6.45;;;5.85;;
27313;SDS011;14800;48.174;9.798;2023-08-24T02:34:10;6.85;;;5.75;;
27313;SDS011;14800;48.174;9.798;2023-08-24T02:36:35;5.80;;;5.25;;
27313;SDS011;14800;48.174;9.798;2023-08-24T02:39:01;6.13;;;5.53;;
27313;SDS011;14800;48.174;9.798;2023-08-24T02:41:27;9.40;;;5.85;;
27313;SDS011;14800;48.174;9.798;2023-08-24T02:43:52;8.48;;;6.65;;
27313;SDS011;14800;48.174;9.798;2023-08-24T02:46:18;8.35;;;6.93;;
27313;SDS011;14800;48.174;9.798;2023-08-24T02:48:45;7.30;;;6.65;;
27313;SDS011;14800;48.174;9.798;2023-08-24T02:51:11;9.18;;;7.13;;
27313;SDS011;14800;48.174;9.798;2023-08-24T02:53:37;8.63;;;7.65;;
27313;SDS011;14800;48.174;9.798;2023-08-24T02:56:02;11.52;;;8.00;;
27313;SDS011;14800;48.174;9.798;2023-08-24T02:58:28;9.15;;;8.32;;
27313;SDS011;14800;48.174;9.798;2023-08-24T03:00:54;8.82;;;7.93;;
27313;SDS011;14800;48.174;9.798;2023-08-24T03:03:20;8.93;;;8.07;;
27313;SDS011;14800;48.174;9.798;2023-08-24T03:05:55;8.38;;;7.68;;
27313;SDS011;14800;48.174;9.798;2023-08-24T03:08:22;8.48;;;7.65;;
27313;SDS011;14800;48.174;9.798;2023-08-24T03:10:48;7.97;;;7.15;;
27313;SDS011;14800;48.174;9.798;2023-08-24T03:13:13;8.45;;;7.15;;
27313;SDS011;14800;48.174;9.798;2023-08-24T03:15:39;8.10;;;7.32;;
27313;SDS011;14800;48.174;9.798;2023-08-24T03:18:05;8.18;;;7.32;;
27313;SDS011;14800;48.174;9.798;2023-08-24T03:20:30;10.20;;;7.72;;
27313;SDS011;14800;48.174;9.798;2023-08-24T03:22:56;8.10;;;7.32;;
27313;SDS011;14800;48.174;9.798;2023-08-24T03:25:22;8.27;;;6.90;;
27313;SDS011;14800;48.174;9.798;2023-08-24T03:27:48;9.55;;;7.30;;
27313;SDS011;14800;48.174;9.798;2023-08-24T03:30:14;8.90;;;7.00;;
27313;SDS011;14800;48.174;9.798;2023-08-24T03:32:40;9.30;;;7.13;;
27313;SDS011;14800;48.174;9.798;2023-08-24T03:35:06;7.43;;;6.72;;
27313;SDS011;14800;48.174;9.798;2023-08-24T03:37:32;7.03;;;6.30;;
27313;SDS011;14800;48.174;9.798;2023-08-24T03:39:58;7.47;;;6.78;;
27313;SDS011;14800;48.174;9.798;2023-08-24T03:42:24;7.25;;;6.53;;
27313;SDS011;14800;48.174;9.798;2023-08-24T03:44:49;6.53;;;6.00;;
27313;SDS011;14800;48.174;9.798;2023-08-24T03:47:15;7.18;;;6.47;;
27313;SDS011;14800;48.174;9.798;2023-08-24T03:49:43;7.30;;;6.60;;
27313;SDS011;14800;48.174;9.798;2023-08-24T03:52:09;7.93;;;6.47;;
27313;SDS011;14800;48.174;9.798;2023-08-24T03:54:35;8.13;;;6.43;;
27313;SDS011;14800;48.174;9.798;2023-08-24T03:57:01;7.72;;;7.03;;
27313;SDS011;14800;48.174;9.798;2023-08-24T03:59:26;7.30;;;6.47;;
27313;SDS011;14800;48.174;9.798;2023-08-24T04:01:52;9.13;;;6.80;;
27313;SDS011;14800;48.174;9.798;2023-08-24T04:04:18;8.18;;;6.82;;
27313;SDS011;14800;48.174;9.798;2023-08-24T04:06:44;7.68;;;6.85;;
27313;SDS011;14800;48.174;9.798;2023-08-24T04:09:09;7.85;;;7.18;;
27313;SDS011;14800;48.174;9.798;2023-08-24T04:11:35;7.75;;;7.05;;
27313;SDS011;14800;48.174;9.798;2023-08-24T04:14:01;8.38;;;6.95;;
27313;SDS011;14800;48.174;9.798;2023-08-24T04:16:26;9.20;;;7.03;;
27313;SDS011;14800;48.174;9.798;2023-08-24T04:18:52;7.93;;;7.10;;
27313;SDS011;14800;48.174;9.798;2023-08-24T04:21:18;8.32;;;7.07;;
27313;SDS011;14800;48.174;9.798;2023-08-24T04:23:43;7.07;;;6.45;;
27313;SDS011;14800;48.174;9.798;2023-08-24T04:26:12;6.45;;;5.93;;
27313;SDS011;14800;48.174;9.798;2023-08-24T04:28:38;7.78;;;6.55;;
27313;SDS011;14800;48.174;9.798;2023-08-24T04:31:04;7.35;;;6.65;;
27313;SDS011;14800;48.174;9.798;2023-08-24T04:33:30;7.45;;;6.78;;
27313;SDS011;14800;48.174;9.798;2023-08-24T04:35:56;8.35;;;7.47;;
27313;SDS011;14800;48.174;9.798;2023-08-24T04:38:23;8.40;;;7.65;;
27313;SDS011;14800;48.174;9.798;2023-08-24T04:43:16;8.25;;;7.38;;
27313;SDS011;14800;48.174;9.798;2023-08-24T04:45:42;9.98;;;7.35;;
27313;SDS011;14800;48.174;9.798;2023-08-24T04:48:10;8.27;;;7.50;;
27313;SDS011;14800;48.174;9.798;2023-08-24T04:50:35;10.45;;;8.45;;
27313;SDS011;14800;48.174;9.798;2023-08-24T04:53:01;11.85;;;8.15;;
27313;SDS011;14800;48.174;9.798;2023-08-24T04:55:27;9.05;;;8.15;;
27313;SDS011;14800;48.174;9.798;2023-08-24T04:57:52;9.60;;;8.60;;
27313;SDS011;14800;48.174;9.798;2023-08-24T05:00:18;9.70;;;8.77;;
27313;SDS011;14800;48.174;9.798;2023-08-24T05:02:43;9.45;;;8.52;;
27313;SDS011;14800;48.174;9.798;2023-08-24T05:05:09;10.00;;;8.65;;
27313;SDS011;14800;48.174;9.798;2023-08-24T05:07:35;9.25;;;8.25;;
27313;SDS011;14800;48.174;9.798;2023-08-24T05:10:03;9.38;;;8.40;;
27313;SDS011;14800;48.174;9.798;2023-08-24T05:12:28;9.10;;;8.30;;
27313;SDS011;14800;48.174;9.798;2023-08-24T05:14:54;9.43;;;8.45;;
27313;SDS011;14800;48.174;9.798;2023-08-24T05:17:20;9.32;;;8.43;;
27313;SDS011;14800;48.174;9.798;2023-08-24T05:19:50;9.10;;;8.20;;
27313;SDS011;14800;48.174;9.798;2023-08-24T05:22:16;9.68;;;7.97;;
27313;SDS011;14800;48.174;9.798;2023-08-24T05:24:42;9.65;;;8.20;;
27313;SDS011;14800;48.174;9.798;2023-08-24T05:27:07;10.15;;;8.25;;
27313;SDS011;14800;48.174;9.798;2023-08-24T05:29:33;9.57;;;7.60;;
27313;SDS011;14800;48.174;9.798;2023-08-24T05:31:58;11.23;;;8.50;;
27313;SDS011;14800;48.174;9.798;2023-08-24T05:34:24;9.15;;;8.15;;
27313;SDS011;14800;48.174;9.798;2023-08-24T05:36:50;10.20;;;7.93;;
27313;SDS011;14800;48.174;9.798;2023-08-24T05:39:16;11.13;;;8.73;;
27313;SDS011;14800;48.174;9.798;2023-08-24T05:41:41;9.10;;;7.80;;
27313;SDS011;14800;48.174;9.798;2023-08-24T05:44:07;8.80;;;7.90;;
27313;SDS011;14800;48.174;9.798;2023-08-24T05:46:33;12.43;;;8.93;;
27313;SDS011;14800;48.174;9.798;2023-08-24T05:48:58;12.23;;;8.45;;
27313;SDS011;14800;48.174;9.798;2023-08-24T05:51:24;9.30;;;8.40;;
27313;SDS011;14800;48.174;9.798;2023-08-24T05:53:50;9.38;;;8.48;;
27313;SDS011;14800;48.174;9.798;2023-08-24T05:56:20;9.27;;;8.07;;
27313;SDS011;14800;48.174;9.798;2023-08-24T05:58:47;9.00;;;7.68;;
27313;SDS011;14800;48.174;9.798;2023-08-24T06:01:13;8.70;;;7.90;;
27313;SDS011;14800;48.174;9.798;2023-08-24T06:03:39;9.57;;;8.38;;
27313;SDS011;14800;48.174;9.798;2023-08-24T06:06:04;12.45;;;8.80;;
27313;SDS011;14800;48.174;9.798;2023-08-24T06:08:30;15.57;;;9.40;;
27313;SDS011;14800;48.174;9.798;2023-08-24T06:10:57;10.15;;;8.30;;
27313;SDS011;14800;48.174;9.798;2023-08-24T06:13:23;11.07;;;9.00;;
27313;SDS011;14800;48.174;9.798;2023-08-24T06:15:49;13.27;;;9.05;;
27313;SDS011;14800;48.174;9.798;2023-08-24T06:18:14;9.30;;;8.18;;
27313;SDS011;14800;48.174;9.798;2023-08-24T06:20:40;10.48;;;8.50;;
27313;SDS011;14800;48.174;9.798;2023-08-24T06:23:06;11.27;;;9.07;;
27313;SDS011;14800;48.174;9.798;2023-08-24T06:25:32;9.73;;;8.73;;
27313;SDS011;14800;48.174;9.798;2023-08-24T06:27:58;9.65;;;8.73;;
27313;SDS011;14800;48.174;9.798;2023-08-24T06:30:24;11.25;;;8.80;;
27313;SDS011;14800;48.174;9.798;2023-08-24T06:32:50;9.18;;;8.27;;
27313;SDS011;14800;48.174;9.798;2023-08-24T06:35:16;12.07;;;8.15;;
27313;SDS011;14800;48.174;9.798;2023-08-24T06:37:42;9.70;;;8.27;;
27313;SDS011;14800;48.174;9.798;2023-08-24T06:40:08;10.32;;;8.88;;
27313;SDS011;14800;48.174;9.798;2023-08-24T06:42:34;11.73;;;8.65;;
27313;SDS011;14800;48.174;9.798;2023-08-24T06:44:59;12.25;;;8.77;;
27313;SDS011;14800;48.174;9.798;2023-08-24T06:47:25;9.55;;;8.55;;
27313;SDS011;14800;48.174;9.798;2023-08-24T06:49:51;11.88;;;8.40;;
27313;SDS011;14800;48.174;9.798;2023-08-24T06:52:16;12.60;;;8.35;;
27313;SDS011;14800;48.174;9.798;2023-08-24T06:54:42;10.45;;;9.45;;
27313;SDS011;14800;48.174;9.798;2023-08-24T06:57:07;10.80;;;9.57;;
27313;SDS011;14800;48.174;9.798;2023-08-24T06:59:34;8.88;;;7.97;;
27313;SDS011;14800;48.174;9.798;2023-08-24T07:02:00;9.32;;;8.02;;
27313;SDS011;14800;48.174;9.798;2023-08-24T07:04:25;9.60;;;8.05;;
27313;SDS011;14800;48.174;9.798;2023-08-24T07:06:52;10.98;;;7.88;;
27313;SDS011;14800;48.174;9.798;2023-08-24T07:09:18;9.75;;;7.82;;
27313;SDS011;14800;48.174;9.798;2023-08-24T07:11:44;9.05;;;7.32;;
27313;SDS011;14800;48.174;9.798;2023-08-24T07:14:10;8.05;;;7.35;;
27313;SDS011;14800;48.174;9.798;2023-08-24T07:16:35;9.52;;;7.93;;
27313;SDS011;14800;48.174;9.798;2023-08-24T07:19:01;9.82;;;7.50;;
27313;SDS011;14800;48.174;9.798;2023-08-24T07:21:27;12.68;;;8.00;;
27313;SDS011;14800;48.174;9.798;2023-08-24T07:23:52;11.85;;;8.88;;
27313;SDS011;14800;48.174;9.798;2023-08-24T07:26:18;8.63;;;7.82;;
27313;SDS011;14800;48.174;9.798;2023-08-24T07:28:44;8.40;;;7.28;;
27313;SDS011;14800;48.174;9.798;2023-08-24T07:31:10;9.85;;;8.80;;
27313;SDS011;14800;48.174;9.798;2023-08-24T07:33:39;9.27;;;7.72;;
27313;SDS011;14800;48.174;9.798;2023-08-24T07:36:08;9.85;;;7.38;;
27313;SDS011;14800;48.174;9.798;2023-08-24T07:38:34;10.73;;;7.18;;
27313;SDS011;14800;48.174;9.798;2023-08-24T07:40:59;11.75;;;8.32;;
27313;SDS011;14800;48.174;9.798;2023-08-24T07:43:25;11.00;;;8.63;;
27313;SDS011;14800;48.174;9.798;2023-08-24T07:45:51;11.05;;;8.10;;
27313;SDS011;14800;48.174;9.798;2023-08-24T07:48:17;9.18;;;8.27;;
27313;SDS011;14800;48.174;9.798;2023-08-24T07:50:43;10.93;;;8.52;;
27313;SDS011;14800;48.174;9.798;2023-08-24T07:53:08;8.45;;;7.60;;
27313;SDS011;14800;48.174;9.798;2023-08-24T07:55:34;11.55;;;8.60;;
27313;SDS011;14800;48.174;9.798;2023-08-24T07:57:59;11.80;;;7.55;;
27313;SDS011;14800;48.174;9.798;2023-08-24T08:00:25;10.32;;;7.30;;
27313;SDS011;14800;48.174;9.798;2023-08-24T08:02:51;9.63;;;8.05;;
27313;SDS011;14800;48.174;9.798;2023-08-24T08:05:17;8.20;;;7.07;;
27313;SDS011;14800;48.174;9.798;2023-08-24T08:07:43;11.18;;;7.03;;
27313;SDS011;14800;48.174;9.798;2023-08-24T08:10:08;10.98;;;7.82;;
27313;SDS011;14800;48.174;9.798;2023-08-24T08:12:34;9.05;;;7.15;;
27313;SDS011;14800;48.174;9.798;2023-08-24T08:15:00;10.93;;;7.40;;
27313;SDS011;14800;48.174;9.798;2023-08-24T08:17:27;10.20;;;7.45;;
27313;SDS011;14800;48.174;9.798;2023-08-24T08:19:56;8.73;;;7.82;;
27313;SDS011;14800;48.174;9.798;2023-08-24T08:22:22;12.07;;;7.40;;
27313;SDS011;14800;48.174;9.798;2023-08-24T08:24:48;9.85;;;7.47;;
27313;SDS011;14800;48.174;9.798;2023-08-24T08:27:14;9.07;;;7.03;;
27313;SDS011;14800;48.174;9.798;2023-08-24T08:29:40;11.45;;;7.90;;
27313;SDS011;14800;48.174;9.798;2023-08-24T08:32:06;11.25;;;7.38;;
27313;SDS011;14800;48.174;9.798;2023-08-24T08:34:32;11.52;;;8.23;;
27313;SDS011;14800;48.174;9.798;2023-08-24T08:36:58;11.52;;;8.23;;
27313;SDS011;14800;48.174;9.798;2023-08-24T08:39:23;9.40;;;7.35;;
27313;SDS011;14800;48.174;9.798;2023-08-24T08:41:49;8.52;;;7.60;;
27313;SDS011;14800;48.174;9.798;2023-08-24T08:44:15;10.13;;;7.38;;
27313;SDS011;14800;48.174;9.798;2023-08-24T08:46:43;9.57;;;7.15;;
27313;SDS011;14800;48.174;9.798;2023-08-24T08:49:11;8.23;;;7.28;;
27313;SDS011;14800;48.174;9.798;2023-08-24T08:51:40;8.05;;;7.18;;
27313;SDS011;14800;48.174;9.798;2023-08-24T08:54:06;11.65;;;7.80;;
27313;SDS011;14800;48.174;9.798;2023-08-24T08:56:32;12.43;;;8.07;;
27313;SDS011;14800;48.174;9.798;2023-08-24T08:59:01;11.70;;;7.97;;
27313;SDS011;14800;48.174;9.798;2023-08-24T09:01:30;11.48;;;7.82;;
27313;SDS011;14800;48.174;9.798;2023-08-24T09:03:56;9.63;;;8.10;;
27313;SDS011;14800;48.174;9.798;2023-08-24T09:06:22;11.25;;;8.25;;
27313;SDS011;14800;48.174;9.798;2023-08-24T09:08:49;8.02;;;7.13;;
27313;SDS011;14800;48.174;9.798;2023-08-24T09:11:15;11.50;;;8.60;;
27313;SDS011;14800;48.174;9.798;2023-08-24T09:13:43;12.73;;;8.20;;
27313;SDS011;14800;48.174;9.798;2023-08-24T09:16:09;10.50;;;8.30;;
27313;SDS011;14800;48.174;9.798;2023-08-24T09:18:41;9.35;;;7.97;;
27313;SDS011;14800;48.174;9.798;2023-08-24T09:21:11;10.25;;;6.88;;
27313;SDS011;14800;48.174;9.798;2023-08-24T09:24:12;8.25;;;7.45;;
27313;SDS011;14800;48.174;9.798;2023-08-24T09:26:31;9.30;;;7.80;;
27313;SDS011;14800;48.174;9.798;2023-08-24T09:28:58;7.93;;;7.03;;
27313;SDS011;14800;48.174;9.798;2023-08-24T09:31:37;7.65;;;6.93;;
27313;SDS011;14800;48.174;9.798;2023-08-24T09:34:03;10.88;;;8.07;;
27313;SDS011;14800;48.174;9.798;2023-08-24T09:36:31;11.40;;;7.20;;
27313;SDS011;14800;48.174;9.798;2023-08-24T09:38:58;12.55;;;8.25;;
27313;SDS011;14800;48.174;9.798;2023-08-24T09:41:28;9.65;;;7.40;;
27313;SDS011;14800;48.174;9.798;2023-08-24T09:44:06;9.93;;;7.82;;
27313;SDS011;14800;48.174;9.798;2023-08-24T09:46:32;10.20;;;7.50;;
27313;SDS011;14800;48.174;9.798;2023-08-24T09:48:59;11.93;;;7.82;;
27313;SDS011;14800;48.174;9.798;2023-08-24T09:51:26;9.02;;;7.35;;
27313;SDS011;14800;48.174;9.798;2023-08-24T09:53:52;11.32;;;6.85;;
27313;SDS011;14800;48.174;9.798;2023-08-24T09:56:26;8.30;;;7.40;;
27313;SDS011;14800;48.174;9.798;2023-08-24T09:58:53;8.35;;;7.50;;
27313;SDS011;14800;48.174;9.798;2023-08-24T10:01:20;7.03;;;6.20;;
27313;SDS011;14800;48.174;9.798;2023-08-24T10:03:50;7.78;;;6.97;;
27313;SDS011;14800;48.174;9.798;2023-08-24T10:06:21;7.53;;;6.90;;
27313;SDS011;14800;48.174;9.798;2023-08-24T10:08:50;8.00;;;6.57;;
27313;SDS011;14800;48.174;9.798;2023-08-24T10:11:19;9.20;;;7.28;;
27313;SDS011;14800;48.174;9.798;2023-08-24T10:14:01;8.30;;;6.95;;
27313;SDS011;14800;48.174;9.798;2023-08-24T10:16:33;8.15;;;7.40;;
27313;SDS011;14800;48.174;9.798;2023-08-24T10:19:00;7.32;;;6.57;;
27313;SDS011;14800;48.174;9.798;2023-08-24T10:21:28;7.40;;;6.55;;
27313;SDS011;14800;48.174;9.798;2023-08-24T10:23:54;9.93;;;6.88;;
27313;SDS011;14800;48.174;9.798;2023-08-24T10:26:24;6.72;;;6.10;;
27313;SDS011;14800;48.174;9.798;2023-08-24T10:28:51;12.40;;;6.50;;
27313;SDS011;14800;48.174;9.798;2023-08-24T10:31:17;7.45;;;6.43;;
27313;SDS011;14800;48.174;9.798;2023-08-24T10:33:45;7.43;;;6.15;;
27313;SDS011;14800;48.174;9.798;2023-08-24T10:36:12;12.43;;;6.43;;
27313;SDS011;14800;48.174;9.798;2023-08-24T10:38:42;6.15;;;5.55;;
27313;SDS011;14800;48.174;9.798;2023-08-24T10:41:08;9.32;;;5.97;;
27313;SDS011;14800;48.174;9.798;2023-08-24T10:43:38;7.30;;;5.72;;
27313;SDS011;14800;48.174;9.798;2023-08-24T10:46:11;8.23;;;5.82;;
27313;SDS011;14800;48.174;9.798;2023-08-24T10:49:20;6.68;;;5.72;;
27313;SDS011;14800;48.174;9.798;2023-08-24T10:51:28;7.88;;;5.68;;
27313;SDS011;14800;48.174;9.798;2023-08-24T10:53:56;7.63;;;5.68;;
27313;SDS011;14800;48.174;9.798;2023-08-24T10:56:56;7.38;;;5.93;;
27313;SDS011;14800;48.174;9.798;2023-08-24T10:59:23;7.97;;;5.53;;
27313;SDS011;14800;48.174;9.798;2023-08-24T11:04:17;7.72;;;5.95;;
27313;SDS011;14800;48.174;9.798;2023-08-24T11:06:53;7.88;;;5.47;;
27313;SDS011;14800;48.174;9.798;2023-08-24T11:09:24;8.18;;;5.45;;
27313;SDS011;14800;48.174;9.798;2023-08-24T11:11:56;8.15;;;5.60;;
27313;SDS011;14800;48.174;9.798;2023-08-24T11:14:23;10.93;;;5.75;;
27313;SDS011;14800;48.174;9.798;2023-08-24T11:16:52;8.68;;;5.35;;
27313;SDS011;14800;48.174;9.798;2023-08-24T11:19:19;9.32;;;5.80;;
27313;SDS011;14800;48.174;9.798;2023-08-24T11:21:45;6.00;;;5.40;;
27313;SDS011;14800;48.174;9.798;2023-08-24T11:24:12;7.47;;;5.50;;
27313;SDS011;14800;48.174;9.798;2023-08-24T11:26:44;7.82;;;5.60;;
27313;SDS011;14800;48.174;9.798;2023-08-24T11:29:11;5.80;;;5.07;;
27313;SDS011;14800;48.174;9.798;2023-08-24T11:31:38;6.45;;;4.97;;
27313;SDS011;14800;48.174;9.798;2023-08-24T11:34:04;5.80;;;4.80;;
27313;SDS011;14800;48.174;9.798;2023-08-24T11:36:32;5.63;;;5.18;;
27313;SDS011;14800;48.174;9.798;2023-08-24T11:39:13;5.43;;;4.93;;
27313;SDS011;14800;48.174;9.798;2023-08-24T11:41:44;7.68;;;5.40;;
27313;SDS011;14800;48.174;9.798;2023-08-24T11:44:46;8.48;;;5.07;;
27313;SDS011;14800;48.174;9.798;2023-08-24T11:47:12;5.13;;;4.68;;
27313;SDS011;14800;48.174;9.798;2023-08-24T11:49:38;10.02;;;4.95;;
27313;SDS011;14800;48.174;9.798;2023-08-24T11:52:04;5.85;;;5.00;;
27313;SDS011;14800;48.174;9.798;2023-08-24T11:54:32;5.47;;;4.75;;
27313;SDS011;14800;48.174;9.798;2023-08-24T11:56:58;5.72;;;5.10;;
27313;SDS011;14800;48.174;9.798;2023-08-24T11:59:23;6.47;;;5.38;;
27313;SDS011;14800;48.174;9.798;2023-08-24T12:01:50;10.48;;;5.30;;
27313;SDS011;14800;48.174;9.798;2023-08-24T12:04:17;6.85;;;5.00;;
27313;SDS011;14800;48.174;9.798;2023-08-24T12:06:43;5.65;;;5.03;;
27313;SDS011;14800;48.174;9.798;2023-08-24T12:09:09;5.13;;;4.60;;
27313;SDS011;14800;48.174;9.798;2023-08-24T12:11:35;5.07;;;4.68;;
27313;SDS011;14800;48.174;9.798;2023-08-24T12:14:02;8.65;;;5.03;;
27313;SDS011;14800;48.174;9.798;2023-08-24T12:16:30;10.85;;;4.90;;
27313;SDS011;14800;48.174;9.798;2023-08-24T12:18:57;8.38;;;4.85;;
27313;SDS011;14800;48.174;9.798;2023-08-24T12:21:30;7.88;;;4.95;;
27313;SDS011;14800;48.174;9.798;2023-08-24T12:26:25;7.28;;;5.20;;
27313;SDS011;14800;48.174;9.798;2023-08-24T12:28:52;5.63;;;4.95;;
27313;SDS011;14800;48.174;9.798;2023-08-24T12:31:18;10.05;;;5.70;;
27313;SDS011;14800;48.174;9.798;2023-08-24T12:33:44;5.80;;;5.22;;
27313;SDS011;14800;48.174;9.798;2023-08-24T12:36:11;6.82;;;4.70;;
27313;SDS011;14800;48.174;9.798;2023-08-24T12:38:37;6.95;;;5.00;;
27313;SDS011;14800;48.174;9.798;2023-08-24T12:41:03;5.65;;;5.10;;
27313;SDS011;14800;48.174;9.798;2023-08-24T12:43:29;9.57;;;5.25;;
27313;SDS011;14800;48.174;9.798;2023-08-24T12:45:54;6.63;;;4.63;;
27313;SDS011;14800;48.174;9.798;2023-08-24T12:48:20;5.88;;;5.07;;
27313;SDS011;14800;48.174;9.798;2023-08-24T12:50:46;7.30;;;4.85;;
27313;SDS011;14800;48.174;9.798;2023-08-24T12:53:11;6.63;;;4.63;;
27313;SDS011;14800;48.174;9.798;2023-08-24T12:55:38;6.60;;;5.05;;
27313;SDS011;14800;48.174;9.798;2023-08-24T12:58:07;5.82;;;4.75;;
27313;SDS011;14800;48.174;9.798;2023-08-24T13:00:34;5.53;;;4.68;;
27313;SDS011;14800;48.174;9.798;2023-08-24T13:02:59;5.30;;;4.80;;
27313;SDS011;14800;48.174;9.798;2023-08-24T13:05:25;6.88;;;4.85;;
27313;SDS011;14800;48.174;9.798;2023-08-24T13:07:50;6.32;;;4.32;;
27313;SDS011;14800;48.174;9.798;2023-08-24T13:10:16;4.65;;;4.20;;
27313;SDS011;14800;48.174;9.798;2023-08-24T13:12:42;7.22;;;4.50;;
27313;SDS011;14800;48.174;9.798;2023-08-24T13:15:08;8.75;;;4.85;;
27313;SDS011;14800;48.174;9.798;2023-08-24T13:17:36;7.03;;;4.45;;
27313;SDS011;14800;48.174;9.798;2023-08-24T13:20:01;7.93;;;4.70;;
27313;SDS011;14800;48.174;9.798;2023-08-24T13:22:28;6.95;;;4.30;;
27313;SDS011;14800;48.174;9.798;2023-08-24T13:24:54;6.35;;;4.28;;
27313;SDS011;14800;48.174;9.798;2023-08-24T13:27:19;6.95;;;4.32;;
27313;SDS011;14800;48.174;9.798;2023-08-24T13:29:45;11.60;;;4.63;;
27313;SDS011;14800;48.174;9.798;2023-08-24T13:32:10;8.90;;;4.10;;
27313;SDS011;14800;48.174;9.798;2023-08-24T13:34:36;8.32;;;4.10;;
27313;SDS011;14800;48.174;9.798;2023-08-24T13:37:02;7.68;;;4.55;;
27313;SDS011;14800;48.174;9.798;2023-08-24T13:39:29;5.28;;;3.50;;
27313;SDS011;14800;48.174;9.798;2023-08-24T13:41:55;7.35;;;4.20;;
27313;SDS011;14800;48.174;9.798;2023-08-24T13:44:21;6.75;;;4.22;;
27313;SDS011;14800;48.174;9.798;2023-08-24T13:46:47;6.68;;;4.20;;
27313;SDS011;14800;48.174;9.798;2023-08-24T13:49:13;6.65;;;4.20;;
27313;SDS011;14800;48.174;9.798;2023-08-24T13:51:39;6.20;;;3.80;;
27313;SDS011;14800;48.174;9.798;2023-08-24T13:54:12;5.60;;;3.83;;
27313;SDS011;14800;48.174;9.798;2023-08-24T13:56:40;8.10;;;3.92;;
27313;SDS011;14800;48.174;9.798;2023-08-24T13:59:05;6.50;;;3.50;;
27313;SDS011;14800;48.174;9.798;2023-08-24T14:01:31;10.48;;;3.80;;
27313;SDS011;14800;48.174;9.798;2023-08-24T14:03:56;7.50;;;3.22;;
27313;SDS011;14800;48.174;9.798;2023-08-24T14:06:22;7.10;;;3.33;;
27313;SDS011;14800;48.174;9.798;2023-08-24T14:08:47;11.13;;;3.63;;
27313;SDS011;14800;48.174;9.798;2023-08-24T14:11:13;5.70;;;3.28;;
27313;SDS011;14800;48.174;9.798;2023-08-24T14:13:40;10.63;;;3.35;;
27313;SDS011;14800;48.174;9.798;2023-08-24T14:16:06;8.85;;;3.80;;
27313;SDS011;14800;48.174;9.798;2023-08-24T14:18:32;12.52;;;3.65;;
27313;SDS011;14800;48.174;9.798;2023-08-24T14:20:57;5.13;;;3.28;;
27313;SDS011;14800;48.174;9.798;2023-08-24T14:23:23;7.57;;;3.28;;
27313;SDS011;14800;48.174;9.798;2023-08-24T14:25:48;9.45;;;3.40;;
27313;SDS011;14800;48.174;9.798;2023-08-24T14:28:18;9.80;;;3.67;;
27313;SDS011;14800;48.174;9.798;2023-08-24T14:30:44;6.50;;;3.50;;
27313;SDS011;14800;48.174;9.798;2023-08-24T14:33:10;15.35;;;3.90;;
27313;SDS011;14800;48.174;9.798;2023-08-24T14:35:36;12.35;;;4.07;;
27313;SDS011;14800;48.174;9.798;2023-08-24T14:38:01;9.02;;;3.47;;
27313;SDS011;14800;48.174;9.798;2023-08-24T14:40:27;8.40;;;3.60;;
27313;SDS011;14800;48.174;9.798;2023-08-24T14:42:52;8.25;;;3.50;;
27313;SDS011;14800;48.174;9.798;2023-08-24T14:45:19;7.50;;;3.42;;
27313;SDS011;14800;48.174;9.798;2023-08-24T14:47:45;4.63;;;3.40;;
27313;SDS011;14800;48.174;9.798;2023-08-24T14:50:11;9.10;;;3.70;;
27313;SDS011;14800;48.174;9.798;2023-08-24T14:52:37;10.98;;;3.42;;
27313;SDS011;14800;48.174;9.798;2023-08-24T14:55:03;7.53;;;3.30;;
27313;SDS011;14800;48.174;9.798;2023-08-24T14:57:30;8.43;;;3.75;;